Domov               UVHVVR             MKGP            O straneh              
ZDRAVSTVENO VARSTVO RASTLIN
  MREŽA AGROMET. POSTAJ
 ► PROGNOSTIČNA OBVESTILA
AGROMETEOROLOŠKI PODATKI -
ARSO
OBVLADOVANJE TVEGANJ ZARADI
NEUGODNIH VREMENSKIH RAZMER
  ► NARAVNE NESREČE
  ► SUŠA/MOČA
  ► NAMAKANJE
  ► ŽLED (gozdarstvo)
KARTOGRAFSKI PRIKAZI
SPLETNE POVEZAVE
PROJEKTI IN PUBLIKACIJE

AGROMETEOROLOŠKA MREŽA: VREMENSKE POSTAJE IN FENOLOŠKA OPAZOVANJA

Pregled podatkov za lokacijo Blanca, meteorološka postaja 27263

Pregled senzorjev na lokaciji

ID Ime Zadnja
vrednost
Datum
zadnje
spremembe
Tip
senzorja
2154 Omočenost lista (U) 0 U 19.2.2018 06:48 A730WET
2155 Padavine (mm) 0 mm 19.2.2018 06:49 Generic
2153 Relativna vlaga 2 m (% RH) 69,1 % RH 19.2.2018 06:48 Generic 0 - 100 %
2158 Temperatura 2 m (°C) -0,2 °C 19.2.2018 06:48 Generic -40 - +60 °C

Pregled podatkov zadnjih 24 ur

Zap.
št.
Datum in čas Blanca
Omočenost
lista
Padavine Relativna
vlaga
2
m
Temperatura
2
m
1 19.2.2018 07:00 0 0 69,1 -0,2
2 19.2.2018 06:30 0 0 68,9 -0,1
3 19.2.2018 06:00 0 0 68,2 -0,1
4 19.2.2018 05:30 0 0 68,6 0
5 19.2.2018 05:00 0 0 68,7 0,1
6 19.2.2018 04:30 0 0 67,2 0,2
7 19.2.2018 04:00 0 0 66,3 0,4
8 19.2.2018 03:30 0 0 65,4 0,4
9 19.2.2018 03:00 0 0 65,6 0,5
10 19.2.2018 02:30 0 0 66,3 0,5
11 19.2.2018 02:00 0 0 66,9 0,6
12 19.2.2018 01:30 0 0 67,3 0,8
13 19.2.2018 01:00 0 0 68,4 0,9
14 19.2.2018 00:30 0 0 69,8 0,9
15 19.2.2018 00:00 0 0 70,1 1,1
16 18.2.2018 23:30 0 0 71,1 1,2
17 18.2.2018 23:00 0 0 70,5 1,3
18 18.2.2018 22:30 0 0 70,4 1,4
19 18.2.2018 22:00 0 0 70,3 1,4
20 18.2.2018 21:30 0 0 70,8 1,5
21 18.2.2018 21:00 0 0 70,5 1,7
22 18.2.2018 20:30 0,6 0 72,5 1,8
23 18.2.2018 20:00 9,8 0 77,5 1,6
24 18.2.2018 19:30 10 0 77,9 1,6
25 18.2.2018 19:00 10 0 77,5 1,7
26 18.2.2018 18:30 10 0 78,3 1,7
27 18.2.2018 18:00 4,3 0 75 2
28 18.2.2018 17:30 5,7 0 74,7 2,2
29 18.2.2018 17:00 10 0 75,3 2,3
30 18.2.2018 16:30 10 0 78,8 2,4
31 18.2.2018 16:00 1,1 0 76,9 2,6
32 18.2.2018 15:30 0 0 74,4 2,9
33 18.2.2018 15:00 0 0 72,4 3
34 18.2.2018 14:30 0 0 73,1 2,9
35 18.2.2018 14:00 0 0 74,4 2,8
36 18.2.2018 13:30 0 0 76,5 2,4
37 18.2.2018 13:00 1,3 0 79,8 2,2
38 18.2.2018 12:30 4,4 0 81,9 2
39 18.2.2018 12:00 2,3 0 83,3 1,9
40 18.2.2018 11:30 6,4 0,4 84,9 1,7
41 18.2.2018 11:00 6,2 0,8 84,8 1,6
42 18.2.2018 10:30 6,3 0,8 84,1 1,6
43 18.2.2018 10:00 9,3 0,6 85,5 1,4
44 18.2.2018 09:30 10 0,4 88 1,1
45 18.2.2018 09:00 10 0,2 91 0,8
46 18.2.2018 08:30 10 0,2 91,6 0,7
47 18.2.2018 08:00 10 0,2 92 0,6
48 18.2.2018 07:30 10 0 93,9 0,5
© 2011 Ministrstvo za kmetijstvo, gozdarstvo in prehrano. Vse pravice pridržane.